Time;durP1;ratioP1;P1;durP2;ratioP2;P2;SDS_P1;SDS_P2;PMS_P1;PMS_P2;Temp;Humidity;BMP_temperature;BMP_pressure;BME280_temperature;BME280_humidity;BME280_pressure;Samples;Min_cycle;Max_cycle;Signal;HPM_P1;HPM_P2
2023/09/24 00:00:10;;;;;;;4.77;0.90;;;12.50;1.00;;;;;;6270023;22;20368;-66
2023/09/24 00:02:36;;;;;;;5.20;1.10;;;12.60;1.00;;;;;;6270159;22;20431;-66
2023/09/24 00:05:01;;;;;;;7.90;1.20;;;12.50;1.00;;;;;;6270544;22;20548;-66
2023/09/24 00:07:27;;;;;;;4.25;0.73;;;12.40;1.00;;;;;;6269402;22;20372;-66
2023/09/24 00:09:53;;;;;;;5.07;0.90;;;12.20;1.00;;;;;;6270524;22;20399;-66
2023/09/24 00:12:18;;;;;;;7.40;1.17;;;12.30;1.00;;;;;;6270699;22;20456;-66
2023/09/24 00:14:45;;;;;;;4.70;0.95;;;12.30;1.00;;;;;;6270613;22;20400;-66
2023/09/24 00:17:11;;;;;;;5.38;1.38;;;12.20;1.00;;;;;;6270763;22;20357;-66
2023/09/24 00:19:37;;;;;;;6.28;1.30;;;12.30;1.00;;;;;;6270679;22;20392;-66
2023/09/24 00:22:04;;;;;;;7.70;1.00;;;12.20;1.00;;;;;;6270230;22;20728;-66
2023/09/24 00:24:29;;;;;;;5.80;0.90;;;12.20;1.00;;;;;;6270544;22;20434;-66
2023/09/24 00:26:55;;;;;;;4.97;1.30;;;12.20;1.00;;;;;;6270674;22;20368;-66
2023/09/24 00:29:21;;;;;;;5.30;1.30;;;12.10;1.00;;;;;;6270175;22;20344;-66
2023/09/24 00:31:46;;;;;;;4.90;1.00;;;12.00;1.00;;;;;;6270209;22;20365;-66
2023/09/24 00:34:12;;;;;;;4.43;1.10;;;12.00;1.00;;;;;;6270864;22;20448;-66
2023/09/24 00:36:37;;;;;;;4.67;1.00;;;12.00;1.00;;;;;;6269980;22;20858;-66
2023/09/24 00:39:04;;;;;;;4.70;0.90;;;12.00;1.00;;;;;;6270298;22;20472;-65
2023/09/24 00:41:30;;;;;;;4.93;1.10;;;12.00;1.00;;;;;;6270400;22;20427;-65
2023/09/24 00:43:57;;;;;;;4.90;1.00;;;11.90;1.00;;;;;;6269959;22;20384;-65
2023/09/24 00:46:23;;;;;;;4.70;1.10;;;11.80;1.00;;;;;;6270061;22;20945;-66
2023/09/24 00:48:51;;;;;;;4.30;1.10;;;11.90;1.00;;;;;;6268264;22;20356;-65
2023/09/24 00:51:19;;;;;;;4.60;0.98;;;11.80;1.00;;;;;;6267702;22;20387;-65
2023/09/24 00:53:46;;;;;;;4.50;1.13;;;11.80;1.00;;;;;;6267598;22;20804;-65
2023/09/24 00:56:14;;;;;;;4.80;1.00;;;11.80;1.00;;;;;;6267487;22;20451;-65
2023/09/24 00:58:42;;;;;;;4.50;1.00;;;11.70;1.00;;;;;;6269011;22;20693;-65
2023/09/24 01:01:08;;;;;;;4.40;0.80;;;11.70;1.00;;;;;;6270088;22;20759;-65
2023/09/24 01:03:33;;;;;;;4.93;1.27;;;11.70;1.00;;;;;;6270065;22;20383;-66
2023/09/24 01:05:59;;;;;;;5.10;0.90;;;11.70;1.00;;;;;;6270031;22;20356;-66
2023/09/24 01:08:28;;;;;;;5.50;1.20;;;11.70;1.00;;;;;;6270339;22;20452;-66
2023/09/24 01:10:56;;;;;;;4.22;0.80;;;11.70;1.00;;;;;;6269387;22;20357;-66
2023/09/24 01:13:23;;;;;;;5.10;1.00;;;11.60;1.00;;;;;;6270277;22;20351;-66
2023/09/24 01:15:49;;;;;;;5.50;1.50;;;11.50;1.00;;;;;;6269760;22;20696;-66
2023/09/24 01:18:16;;;;;;;8.10;1.20;;;11.50;1.00;;;;;;6269888;22;20380;-66
2023/09/24 01:20:42;;;;;;;5.00;1.10;;;11.40;1.00;;;;;;6270536;22;20360;-66
2023/09/24 01:23:14;;;;;;;4.70;1.17;;;11.50;1.00;;;;;;6270335;22;20403;-66
2023/09/24 01:25:41;;;;;;;4.60;0.95;;;11.50;1.00;;;;;;6270816;22;20348;-66
2023/09/24 01:28:07;;;;;;;4.30;0.70;;;11.60;1.00;;;;;;6270356;22;20364;-66
2023/09/24 01:30:34;;;;;;;4.38;0.88;;;11.60;1.00;;;;;;6269711;22;20673;-66
2023/09/24 01:33:00;;;;;;;5.30;1.30;;;11.60;1.00;;;;;;6270386;22;20367;-66
2023/09/24 01:35:28;;;;;;;5.28;1.40;;;11.70;1.00;;;;;;6270371;22;20388;-66
2023/09/24 01:38:00;;;;;;;4.80;1.10;;;11.70;1.00;;;;;;6270508;22;20434;-66
2023/09/24 01:40:32;;;;;;;4.50;1.00;;;11.60;1.00;;;;;;6270163;22;20352;-65
2023/09/24 01:42:58;;;;;;;5.07;1.27;;;11.50;1.00;;;;;;6269915;22;20866;-66
2023/09/24 01:45:25;;;;;;;4.93;1.50;;;11.40;1.00;;;;;;6270138;22;20830;-66
2023/09/24 01:47:51;;;;;;;5.40;1.30;;;11.30;1.00;;;;;;6270257;22;20387;-65
2023/09/24 01:50:17;;;;;;;5.20;1.50;;;11.30;1.00;;;;;;6270047;22;20348;-65
2023/09/24 01:52:45;;;;;;;7.70;1.20;;;11.30;1.00;;;;;;6270793;22;20356;-65
2023/09/24 01:55:15;;;;;;;4.30;1.10;;;11.20;1.00;;;;;;6268609;22;20368;-65
2023/09/24 01:57:44;;;;;;;5.18;1.17;;;11.20;1.00;;;;;;6270233;22;20376;-65
2023/09/24 02:00:11;;;;;;;4.90;1.00;;;11.20;1.00;;;;;;6270751;22;20470;-65
2023/09/24 02:02:38;;;;;;;4.80;1.38;;;11.20;1.00;;;;;;6269462;22;20356;-65
2023/09/24 02:05:06;;;;;;;5.30;1.20;;;11.20;1.00;;;;;;6269800;22;20712;-65
2023/09/24 02:07:31;;;;;;;4.90;1.30;;;11.10;1.00;;;;;;6270495;22;20368;-65
2023/09/24 02:09:57;;;;;;;5.10;1.40;;;11.10;1.00;;;;;;6270355;22;20665;-65
2023/09/24 02:12:23;;;;;;;5.10;1.08;;;11.00;1.00;;;;;;6269821;22;20779;-66
2023/09/24 02:14:48;;;;;;;6.20;1.40;;;10.90;1.00;;;;;;6270407;22;20366;-65
2023/09/24 02:17:14;;;;;;;5.53;1.40;;;10.90;1.00;;;;;;6269560;22;20359;-65
2023/09/24 02:19:44;;;;;;;5.22;1.40;;;10.80;1.00;;;;;;6270274;22;20376;-66
2023/09/24 02:22:11;;;;;;;5.25;1.40;;;10.80;1.00;;;;;;6270410;22;20368;-66
2023/09/24 02:24:38;;;;;;;4.43;1.00;;;10.80;1.00;;;;;;6270183;22;20352;-66
2023/09/24 02:27:04;;;;;;;4.85;0.90;;;10.90;1.00;;;;;;6269769;22;20704;-65
2023/09/24 02:29:29;;;;;;;4.87;1.30;;;10.80;1.00;;;;;;6269803;22;20371;-65
2023/09/24 02:31:55;;;;;;;4.78;1.00;;;10.70;1.00;;;;;;6269783;22;20430;-65
2023/09/24 02:34:20;;;;;;;7.00;1.60;;;10.60;1.00;;;;;;6269609;22;20696;-66
2023/09/24 02:36:46;;;;;;;6.83;1.57;;;10.70;1.00;;;;;;6268452;22;20835;-66
2023/09/24 02:39:11;;;;;;;6.53;1.43;;;10.80;1.00;;;;;;6268218;22;20431;-66
2023/09/24 02:41:37;;;;;;;4.72;1.10;;;10.80;1.00;;;;;;6267316;22;20432;-66
2023/09/24 02:44:03;;;;;;;5.30;1.90;;;10.80;1.00;;;;;;6267987;22;20463;-66
2023/09/24 02:46:29;;;;;;;5.05;1.33;;;10.70;1.00;;;;;;6269551;22;20359;-66
2023/09/24 02:48:55;;;;;;;5.55;1.25;;;10.60;1.00;;;;;;6271196;22;20388;-66
2023/09/24 02:51:20;;;;;;;5.10;1.20;;;10.60;1.00;;;;;;6269845;22;20356;-66
2023/09/24 02:53:47;;;;;;;4.50;1.20;;;10.70;1.00;;;;;;6269545;22;20360;-66
2023/09/24 02:56:13;;;;;;;5.88;1.70;;;10.80;1.00;;;;;;6269673;22;20371;-66
2023/09/24 02:58:39;;;;;;;5.20;1.20;;;10.80;1.00;;;;;;6270129;22;20408;-66
2023/09/24 03:01:14;;;;;;;5.17;1.40;;;10.80;1.00;;;;;;6269126;22;20692;-66
2023/09/24 03:03:40;;;;;;;4.97;1.20;;;10.80;1.00;;;;;;6270082;22;20360;-66
2023/09/24 03:06:06;;;;;;;6.90;1.47;;;10.70;1.00;;;;;;6269492;22;20895;-65
2023/09/24 03:08:32;;;;;;;4.63;1.30;;;10.70;1.00;;;;;;6269544;22;20851;-65
2023/09/24 03:10:57;;;;;;;4.75;1.23;;;10.70;1.00;;;;;;6269043;22;20534;-66
2023/09/24 03:13:23;;;;;;;4.70;1.20;;;10.60;1.00;;;;;;6269168;22;20414;-66
2023/09/24 03:15:48;;;;;;;6.70;1.40;;;10.60;1.00;;;;;;6268981;22;20667;-66
2023/09/24 03:18:14;;;;;;;7.97;2.13;;;10.60;1.00;;;;;;6269223;22;20471;-66
2023/09/24 03:20:40;;;;;;;5.88;1.60;;;10.60;1.00;;;;;;6270258;22;20375;-66
2023/09/24 03:23:09;;;;;;;4.70;1.10;;;10.60;1.00;;;;;;6269151;22;20352;-66
2023/09/24 03:25:35;;;;;;;5.40;1.48;;;10.50;1.00;;;;;;6269067;22;20801;-66
2023/09/24 03:28:01;;;;;;;4.40;1.03;;;10.40;1.00;;;;;;6269187;22;20390;-66
2023/09/24 03:30:27;;;;;;;5.30;1.30;;;10.40;1.00;;;;;;6268917;22;20747;-66
2023/09/24 03:32:53;;;;;;;5.90;1.50;;;10.30;1.00;;;;;;6268965;22;20394;-65
2023/09/24 03:35:24;;;;;;;5.82;2.08;;;10.30;1.00;;;;;;6270188;22;20869;-66
2023/09/24 03:37:50;;;;;;;5.20;1.25;;;10.20;1.00;;;;;;6270829;22;20376;-66
2023/09/24 03:40:18;;;;;;;4.40;1.17;;;10.30;1.00;;;;;;6270919;22;20379;-66
2023/09/24 03:42:44;;;;;;;4.72;1.30;;;10.30;1.00;;;;;;6271804;22;20660;-66
2023/09/24 03:45:12;;;;;;;6.07;1.70;;;10.30;1.00;;;;;;6271047;22;20375;-66
2023/09/24 03:47:39;;;;;;;8.10;1.60;;;10.20;1.00;;;;;;6270878;22;20388;-66
2023/09/24 03:50:05;;;;;;;5.00;1.40;;;10.20;1.00;;;;;;6270733;22;20796;-65
2023/09/24 03:52:32;;;;;;;5.10;1.67;;;10.30;1.00;;;;;;6270792;22;20956;-65
2023/09/24 03:54:59;;;;;;;6.30;1.70;;;10.30;9.10;;;;;;6270465;22;20352;-66
2023/09/24 03:57:27;;;;;;;8.10;1.92;;;10.40;12.70;;;;;;6270675;22;20443;-66
2023/09/24 03:59:54;;;;;;;6.13;1.90;;;10.30;21.70;;;;;;6270365;22;20352;-66
2023/09/24 04:02:20;;;;;;;5.60;1.90;;;10.40;18.20;;;;;;6270636;22;20360;-66
2023/09/24 04:04:46;;;;;;;9.23;1.90;;;10.40;10.00;;;;;;6270417;22;20376;-66
2023/09/24 04:07:12;;;;;;;9.83;2.47;;;10.40;3.40;;;;;;6271266;22;20360;-66
2023/09/24 04:09:38;;;;;;;5.50;1.77;;;10.50;1.00;;;;;;6270544;22;20357;-66
2023/09/24 04:12:04;;;;;;;5.30;1.63;;;10.50;1.00;;;;;;6270527;22;20376;-66
2023/09/24 04:14:30;;;;;;;5.70;1.63;;;10.50;1.00;;;;;;6270650;22;20356;-66
2023/09/24 04:16:56;;;;;;;6.30;1.92;;;10.40;1.00;;;;;;6270809;22;20352;-66
2023/09/24 04:19:23;;;;;;;6.53;1.80;;;10.30;1.00;;;;;;6270516;22;20376;-66
2023/09/24 04:21:49;;;;;;;5.72;1.67;;;10.30;1.00;;;;;;6270572;22;20349;-66
2023/09/24 04:24:14;;;;;;;6.15;1.65;;;10.30;1.00;;;;;;6270660;22;20444;-65
2023/09/24 04:26:40;;;;;;;5.70;1.80;;;10.20;1.00;;;;;;6270954;22;20428;-66
2023/09/24 04:29:06;;;;;;;7.40;1.70;;;10.20;1.00;;;;;;6270215;22;20364;-66
2023/09/24 04:31:31;;;;;;;7.30;1.90;;;10.10;1.00;;;;;;6243503;22;20375;-66
2023/09/24 04:33:57;;;;;;;9.00;2.50;;;9.90;4.10;;;;;;6270246;22;20405;-66
2023/09/24 04:36:22;;;;;;;6.30;1.60;;;10.00;20.90;;;;;;6270532;22;20393;-66
2023/09/24 04:38:48;;;;;;;6.30;2.20;;;9.90;39.10;;;;;;6270036;22;20392;-65
2023/09/24 04:41:15;;;;;;;5.30;1.60;;;10.00;61.10;;;;;;6269843;22;20759;-65
2023/09/24 04:43:42;;;;;;;8.65;2.15;;;10.00;43.90;;;;;;6269368;22;20371;-65
2023/09/24 04:46:08;;;;;;;8.30;2.20;;;10.10;30.00;;;;;;6269539;22;20364;-65
2023/09/24 04:48:35;;;;;;;5.53;1.60;;;10.10;40.50;;;;;;6271049;22;21229;-65
2023/09/24 04:51:01;;;;;;;5.10;1.80;;;10.10;42.00;;;;;;6270504;22;20490;-65
2023/09/24 04:53:26;;;;;;;7.20;1.97;;;10.00;49.30;;;;;;6270571;22;20380;-66
2023/09/24 04:55:52;;;;;;;6.40;1.95;;;10.00;54.50;;;;;;6270786;22;20356;-66
2023/09/24 04:58:17;;;;;;;5.90;2.27;;;10.00;67.60;;;;;;6270580;22;20388;-66
2023/09/24 05:00:43;;;;;;;6.00;2.00;;;10.00;58.70;;;;;;6271395;22;20866;-65
2023/09/24 05:03:08;;;;;;;6.20;2.42;;;10.00;64.70;;;;;;6270243;22;20356;-65
2023/09/24 05:05:34;;;;;;;5.60;1.77;;;10.00;66.90;;;;;;6270529;22;20426;-65
2023/09/24 05:08:03;;;;;;;7.27;2.27;;;10.00;94.70;;;;;;6270085;22;20421;-65
2023/09/24 05:10:28;;;;;;;6.45;1.90;;;10.10;91.50;;;;;;6270463;22;20352;-66
2023/09/24 05:12:54;;;;;;;5.60;1.50;;;10.10;78.70;;;;;;6270322;22;20374;-66
2023/09/24 05:15:19;;;;;;;5.72;1.55;;;10.10;58.40;;;;;;6269933;22;20687;-66
2023/09/24 05:17:45;;;;;;;6.53;2.50;;;10.10;26.00;;;;;;6270568;22;20369;-65
2023/09/24 05:20:11;;;;;;;5.40;1.97;;;10.10;18.40;;;;;;6271475;22;20435;-66
2023/09/24 05:22:37;;;;;;;6.67;1.70;;;10.00;13.90;;;;;;6270079;22;20360;-66
2023/09/24 05:25:04;;;;;;;7.88;2.30;;;9.90;23.20;;;;;;6270439;22;20364;-66
2023/09/24 05:27:32;;;;;;;6.60;1.50;;;9.90;35.20;;;;;;6270278;22;20796;-66
2023/09/24 05:29:57;;;;;;;5.43;1.90;;;10.00;35.20;;;;;;6270572;22;20878;-66
2023/09/24 05:32:23;;;;;;;6.03;1.80;;;9.90;36.60;;;;;;6270472;22;20364;-66
2023/09/24 05:34:52;;;;;;;5.90;1.47;;;10.00;29.20;;;;;;6270591;22;20815;-66
2023/09/24 05:37:18;;;;;;;6.00;1.70;;;10.20;30.10;;;;;;6270003;22;20827;-66
2023/09/24 05:39:43;;;;;;;6.50;2.50;;;10.50;13.10;;;;;;6270076;22;20390;-66
2023/09/24 05:42:09;;;;;;;5.47;2.30;;;10.70;22.00;;;;;;6271395;22;20392;-65
2023/09/24 05:44:34;;;;;;;5.80;2.10;;;11.20;26.70;;;;;;6270595;22;20870;-65
2023/09/24 05:47:00;;;;;;;5.30;2.30;;;11.90;1.00;;;;;;6270620;22;20820;-66
2023/09/24 05:49:26;;;;;;;6.90;2.10;;;12.50;1.00;;;;;;6271252;22;20358;-66
2023/09/24 05:51:51;;;;;;;6.93;2.20;;;13.20;1.00;;;;;;6270056;22;20447;-66
2023/09/24 05:54:17;;;;;;;5.10;1.83;;;14.00;28.20;;;;;;6270107;22;20361;-66
2023/09/24 05:56:43;;;;;;;7.77;1.90;;;14.60;1.00;;;;;;6270727;22;20369;-66
2023/09/24 05:59:09;;;;;;;6.05;1.90;;;15.00;1.00;;;;;;6270913;22;20399;-66
2023/09/24 06:01:34;;;;;;;5.47;1.60;;;15.60;99.90;;;;;;6270387;22;20812;-67
2023/09/24 06:04:00;;;;;;;7.00;1.52;;;16.20;99.90;;;;;;6269035;22;20360;-66
2023/09/24 06:06:25;;;;;;;6.10;1.77;;;16.50;99.90;;;;;;6269395;22;20376;-66
2023/09/24 06:08:54;;;;;;;6.57;1.98;;;17.00;1.00;;;;;;6268743;22;20436;-66
2023/09/24 06:11:20;;;;;;;6.88;1.85;;;18.10;1.00;;;;;;6242711;22;20361;-67
2023/09/24 06:13:45;;;;;;;6.07;1.77;;;19.10;1.00;;;;;;6270035;22;20878;-66
2023/09/24 06:16:11;;;;;;;6.40;2.20;;;19.90;1.00;;;;;;6270880;22;20372;-67
2023/09/24 06:18:37;;;;;;;5.60;1.77;;;20.40;1.00;;;;;;6270128;22;20376;-67
2023/09/24 06:21:04;;;;;;;5.70;1.90;;;20.50;1.00;;;;;;6270031;22;20364;-67
2023/09/24 06:23:30;;;;;;;5.50;2.00;;;20.70;1.00;;;;;;6270130;22;20367;-67
2023/09/24 06:25:56;;;;;;;5.57;1.65;;;20.60;99.90;;;;;;6270290;22;20368;-67
2023/09/24 06:28:23;;;;;;;7.20;2.00;;;20.50;99.90;;;;;;6270477;22;20352;-67
2023/09/24 06:31:04;;;;;;;10.18;2.80;;;20.20;99.90;;;;;;6270449;22;20451;-66
2023/09/24 06:33:30;;;;;;;7.00;1.73;;;20.30;99.90;;;;;;6270460;22;20344;-66
2023/09/24 06:35:56;;;;;;;6.25;1.80;;;20.10;99.90;;;;;;6270603;22;20383;-66
2023/09/24 06:38:22;;;;;;;7.00;2.30;;;20.50;99.90;;;;;;6270491;22;20727;-67
2023/09/24 06:40:56;;;;;;;5.88;1.60;;;21.30;99.90;;;;;;6271948;22;20356;-67
2023/09/24 06:43:24;;;;;;;6.43;1.77;;;;;;;;;;6270938;22;20435;-66
2023/09/24 06:45:50;;;;;;;5.43;1.67;;;22.10;99.90;;;;;;6270709;22;20403;-66
2023/09/24 06:48:16;;;;;;;6.57;1.90;;;21.50;99.90;;;;;;6270853;22;20360;-67
2023/09/24 06:50:42;;;;;;;5.93;2.20;;;21.40;99.90;;;;;;6271774;22;20380;-67
2023/09/24 06:53:07;;;;;;;5.88;1.48;;;21.90;99.90;;;;;;6270285;22;20360;-67
2023/09/24 06:55:33;;;;;;;5.50;1.45;;;22.20;99.90;;;;;;6271705;22;20421;-66
2023/09/24 06:57:59;;;;;;;5.80;1.60;;;22.10;99.90;;;;;;6271969;22;20479;-67
2023/09/24 07:00:24;;;;;;;5.47;1.60;;;23.00;99.90;;;;;;6277719;22;20684;-68
2023/09/24 07:02:50;;;;;;;5.60;1.40;;;23.40;99.90;;;;;;6277057;22;20355;-68
2023/09/24 07:05:16;;;;;;;5.90;1.27;;;22.80;99.90;;;;;;6274968;22;20364;-67
2023/09/24 07:07:41;;;;;;;5.40;1.23;;;22.70;99.90;;;;;;6273941;22;20384;-67
2023/09/24 07:10:07;;;;;;;5.47;1.60;;;23.60;99.90;;;;;;6245359;22;20398;-67
2023/09/24 07:12:33;;;;;;;5.70;1.30;;;24.40;99.90;;;;;;6272336;22;20361;-67
2023/09/24 07:14:59;;;;;;;5.70;1.60;;;24.00;99.90;;;;;;6272290;22;20356;-67
2023/09/24 07:17:24;;;;;;;5.45;1.38;;;24.30;99.90;;;;;;6273364;22;20353;-67
2023/09/24 07:19:51;;;;;;;5.90;1.50;;;25.30;99.90;;;;;;6271515;22;20423;-67
2023/09/24 07:22:21;;;;;;;5.67;1.40;;;25.20;99.90;;;;;;6270728;22;20363;-67
2023/09/24 07:24:46;;;;;;;6.20;2.03;;;25.20;99.90;;;;;;6271850;22;20625;-67
2023/09/24 07:27:12;;;;;;;7.50;2.50;;;24.50;99.90;;;;;;6272125;22;20403;-67
2023/09/24 07:29:39;;;;;;;8.00;2.20;;;23.70;99.90;;;;;;6271434;22;20706;-67
2023/09/24 07:32:04;;;;;;;7.65;2.20;;;23.60;99.90;;;;;;6271066;22;20380;-66
2023/09/24 07:34:30;;;;;;;9.38;1.67;;;24.40;99.90;;;;;;6271290;22;20473;-66
2023/09/24 07:36:56;;;;;;;6.40;2.17;;;24.50;99.90;;;;;;6269367;22;20367;-66
2023/09/24 07:39:21;;;;;;;6.93;2.20;;;24.50;99.90;;;;;;6271452;22;20380;-66
2023/09/24 07:41:47;;;;;;;7.18;1.98;;;26.00;99.90;;;;;;6243666;22;20371;-68
2023/09/24 07:44:13;;;;;;;6.32;2.33;;;26.70;99.90;;;;;;6271735;22;20356;-67
2023/09/24 07:46:38;;;;;;;5.90;2.10;;;26.70;99.90;;;;;;6271207;22;20364;-66
2023/09/24 07:49:05;;;;;;;6.97;1.97;;;26.50;99.90;;;;;;6270213;22;20442;-66
2023/09/24 07:51:31;;;;;;;6.10;2.05;;;27.00;99.90;;;;;;6270264;22;20453;-66
2023/09/24 07:53:56;;;;;;;6.40;2.00;;;26.90;99.90;;;;;;6270526;22;20794;-66
2023/09/24 07:56:22;;;;;;;6.30;2.20;;;27.70;99.90;;;;;;6270584;22;20527;-66
2023/09/24 07:58:47;;;;;;;6.20;1.80;;;28.40;99.90;;;;;;6270967;22;20465;-66
2023/09/24 08:01:14;;;;;;;7.60;1.90;;;27.40;99.90;;;;;;6271526;22;20395;-66
2023/09/24 08:03:45;;;;;;;6.00;1.83;;;26.70;99.90;;;;;;6270471;22;20360;-68
2023/09/24 08:06:10;;;;;;;5.80;1.65;;;27.20;99.90;;;;;;6270929;22;20780;-70
2023/09/24 08:08:37;;;;;;;7.00;2.00;;;27.30;99.90;;;;;;6270969;22;20372;-70
2023/09/24 08:11:02;;;;;;;7.40;2.10;;;27.90;99.90;;;;;;6270463;22;21014;-67
2023/09/24 08:13:29;;;;;;;5.80;2.00;;;27.70;99.90;;;;;;6270981;22;20403;-67
2023/09/24 08:15:57;;;;;;;6.07;1.80;;;27.70;99.90;;;;;;6270160;22;20368;-67
2023/09/24 08:18:23;;;;;;;5.43;1.52;;;27.50;99.90;;;;;;6271163;22;20384;-68
2023/09/24 08:20:49;;;;;;;5.68;1.60;;;28.60;99.90;;;;;;6270084;22;20824;-67
2023/09/24 08:23:15;;;;;;;6.93;1.90;;;28.70;99.90;;;;;;6270463;22;20391;-67
2023/09/24 08:25:41;;;;;;;9.00;1.80;;;30.30;99.90;;;;;;6271334;22;20357;-69
2023/09/24 08:28:08;;;;;;;6.10;1.80;;;31.20;99.90;;;;;;6270523;22;20359;-68
2023/09/24 08:30:34;;;;;;;6.15;1.40;;;29.90;99.90;;;;;;6271061;22;20363;-67
2023/09/24 08:33:00;;;;;;;5.82;1.33;;;29.40;99.90;;;;;;6270271;22;20352;-67
2023/09/24 08:35:26;;;;;;;5.63;1.20;;;28.50;99.90;;;;;;6271401;22;20379;-67
2023/09/24 08:37:52;;;;;;;8.90;1.60;;;27.90;99.90;;;;;;6270082;22;20781;-67
2023/09/24 08:40:17;;;;;;;4.90;0.80;;;27.80;99.90;;;;;;6270368;22;20426;-67
2023/09/24 08:42:48;;;;;;;5.93;1.03;;;29.70;99.90;;;;;;6270352;22;20369;-67
2023/09/24 08:45:15;;;;;;;5.90;1.48;;;31.00;99.90;;;;;;6269771;22;20383;-66
2023/09/24 08:47:42;;;;;;;7.10;1.40;;;30.30;99.90;;;;;;6269802;22;20665;-66
2023/09/24 08:50:08;;;;;;;5.60;1.30;;;29.80;99.90;;;;;;6269363;22;20726;-67
2023/09/24 08:52:36;;;;;;;7.47;1.92;;;29.80;99.90;;;;;;6270230;22;20361;-66
2023/09/24 08:55:05;;;;;;;6.22;1.40;;;29.60;99.90;;;;;;6270583;22;20367;-67
2023/09/24 08:57:32;;;;;;;6.47;1.33;;;29.20;99.90;;;;;;6269949;22;20360;-69
2023/09/24 08:59:57;;;;;;;7.43;1.55;;;29.50;99.90;;;;;;6242967;22;20388;-70
2023/09/24 09:02:23;;;;;;;5.70;1.50;;;30.70;99.90;;;;;;6270147;22;20356;-70
2023/09/24 09:04:50;;;;;;;6.40;1.77;;;31.50;99.90;;;;;;6241912;22;20368;-70
2023/09/24 09:07:16;;;;;;;7.63;1.63;;;31.70;99.90;;;;;;6269842;22;20365;-71
2023/09/24 09:09:55;;;;;;;5.50;1.50;;;31.90;99.90;;;;;;6270378;22;20444;-70
2023/09/24 09:12:22;;;;;;;6.40;1.60;;;32.50;99.90;;;;;;6268667;22;20379;-70
2023/09/24 09:14:48;;;;;;;5.57;1.30;;;32.00;99.90;;;;;;6242139;22;20372;-70
2023/09/24 09:17:13;;;;;;;6.10;1.80;;;31.70;99.90;;;;;;6270134;22;20403;-70
2023/09/24 09:19:59;;;;;;;7.95;1.40;;;32.10;99.90;;;;;;6270687;22;20484;-70
2023/09/24 09:22:28;;;;;;;7.30;1.35;;;32.40;99.90;;;;;;6269779;22;20816;-70
2023/09/24 09:25:05;;;;;;;6.30;0.90;;;32.20;99.90;;;;;;6269466;22;20372;-70
2023/09/24 09:27:39;;;;;;;5.82;1.10;;;32.60;99.90;;;;;;6269800;22;20357;-70
2023/09/24 09:30:17;;;;;;;5.30;1.20;;;33.00;99.90;;;;;;6269767;22;20852;-69
2023/09/24 09:32:44;;;;;;;6.38;1.30;;;32.70;99.90;;;;;;6269421;22;20766;-69
2023/09/24 09:35:10;;;;;;;6.50;1.40;;;32.00;99.90;;;;;;6270375;22;20352;-70
2023/09/24 09:37:39;;;;;;;5.00;0.90;;;31.50;99.90;;;;;;6269496;22;20882;-70
2023/09/24 09:40:06;;;;;;;7.60;1.00;;;30.60;99.90;;;;;;6269440;22;20373;-70
2023/09/24 09:42:35;;;;;;;5.00;1.10;;;29.90;99.90;;;;;;6269888;22;20401;-69
2023/09/24 09:45:08;;;;;;;4.90;0.70;;;30.20;99.90;;;;;;6269335;22;20808;-70
2023/09/24 09:47:37;;;;;;;4.90;0.80;;;31.10;99.90;;;;;;6269488;22;20673;-71
2023/09/24 09:50:04;;;;;;;6.93;0.97;;;31.30;99.90;;;;;;6269407;22;20360;-71
2023/09/24 09:52:37;;;;;;;5.60;1.33;;;29.60;99.90;;;;;;6270868;22;20427;-70
2023/09/24 09:55:05;;;;;;;5.30;0.97;;;29.60;99.90;;;;;;6271610;22;20785;-70
2023/09/24 09:57:32;;;;;;;5.72;0.98;;;30.10;99.90;;;;;;6272288;22;20348;-70
2023/09/24 10:00:00;;;;;;;6.30;0.80;;;30.00;99.90;;;;;;6272020;22;20461;-69
2023/09/24 10:02:28;;;;;;;6.38;1.13;;;30.30;99.90;;;;;;6272147;22;20360;-69
2023/09/24 10:04:59;;;;;;;6.20;0.80;;;30.10;99.90;;;;;;6271457;22;20368;-70
2023/09/24 10:07:25;;;;;;;5.00;0.80;;;30.20;99.90;;;;;;6272444;22;20368;-68
2023/09/24 10:09:50;;;;;;;4.90;0.87;;;30.30;99.90;;;;;;6272345;22;20824;-68
2023/09/24 10:12:42;;;;;;;5.63;1.27;;;30.70;99.90;;;;;;6273058;22;20360;-69
2023/09/24 10:15:34;;;;;;;5.70;1.20;;;30.50;99.90;;;;;;6268280;22;20853;-68
2023/09/24 10:18:22;;;;;;;8.93;1.20;;;30.20;99.90;;;;;;6267501;22;20388;-68
2023/09/24 10:20:55;;;;;;;7.03;1.10;;;30.10;99.90;;;;;;6275297;22;20429;-68
2023/09/24 10:23:39;;;;;;;5.05;1.10;;;30.90;99.90;;;;;;6275185;22;20357;-69
2023/09/24 10:26:24;;;;;;;4.70;0.87;;;30.80;99.90;;;;;;6275400;22;20369;-68
2023/09/24 10:29:11;;;;;;;5.30;0.75;;;29.80;99.90;;;;;;6272424;22;20672;-68
2023/09/24 10:32:08;;;;;;;6.50;1.08;;;29.50;99.90;;;;;;6274294;22;20364;-68
2023/09/24 10:34:55;;;;;;;4.70;0.90;;;29.90;99.90;;;;;;6271374;22;20366;-68
2023/09/24 10:37:34;;;;;;;5.30;1.00;;;30.30;99.90;;;;;;6275348;22;20422;-68
2023/09/24 10:42:34;;;;;;;6.30;1.30;;;30.50;99.90;;;;;;6279373;22;20741;-68
2023/09/24 10:45:06;;;;;;;6.63;1.10;;;30.30;99.90;;;;;;6276804;22;20393;-69
2023/09/24 10:47:51;;;;;;;5.60;1.20;;;29.80;99.90;;;;;;6278177;22;20360;-69
2023/09/24 10:50:23;;;;;;;5.18;1.25;;;30.00;99.90;;;;;;6275737;22;20379;-69
2023/09/24 10:52:59;;;;;;;5.00;1.15;;;30.80;99.90;;;;;;6274886;22;20913;-69
2023/09/24 10:55:28;;;;;;;5.75;1.20;;;30.40;99.90;;;;;;6278109;22;20368;-69
2023/09/24 10:57:54;;;;;;;5.05;0.93;;;30.60;99.90;;;;;;6276683;22;20367;-69
2023/09/24 11:00:22;;;;;;;7.30;1.55;;;30.40;99.90;;;;;;6276191;22;20360;-69
2023/09/24 11:03:02;;;;;;;5.05;0.77;;;30.10;99.90;;;;;;6251622;22;20431;-68
2023/09/24 11:05:34;;;;;;;6.50;1.20;;;29.60;99.90;;;;;;6277151;22;20369;-69
2023/09/24 11:08:00;;;;;;;5.53;1.10;;;28.70;99.90;;;;;;6277414;22;20372;-68
2023/09/24 11:10:26;;;;;;;5.20;1.00;;;27.60;99.90;;;;;;6277645;22;20371;-68
2023/09/24 11:12:55;;;;;;;5.90;1.00;;;27.50;99.90;;;;;;6277281;22;20862;-68
2023/09/24 11:15:25;;;;;;;5.90;1.20;;;28.00;99.90;;;;;;6276538;22;20367;-68
2023/09/24 11:17:51;;;;;;;5.53;0.90;;;28.10;99.90;;;;;;6275345;22;20371;-68
2023/09/24 11:20:20;;;;;;;6.70;1.35;;;27.40;99.90;;;;;;6249041;22;20375;-67
2023/09/24 11:22:56;;;;;;;7.70;1.50;;;26.60;99.90;;;;;;6278057;22;20459;-68
2023/09/24 11:25:22;;;;;;;5.93;0.70;;;26.40;99.90;;;;;;6245691;22;20348;-68
2023/09/24 11:27:59;;;;;;;7.18;1.10;;;26.00;99.90;;;;;;6271155;22;20365;-68
2023/09/24 11:30:37;;;;;;;5.10;1.20;;;25.50;99.90;;;;;;6272330;22;20357;-68
2023/09/24 11:33:17;;;;;;;5.28;1.05;;;25.00;99.90;;;;;;6273055;22;20364;-68
2023/09/24 11:35:44;;;;;;;5.28;0.90;;;24.80;99.90;;;;;;6274526;22;20387;-68
2023/09/24 11:38:11;;;;;;;7.05;1.40;;;24.60;99.90;;;;;;6244040;22;20469;-68
2023/09/24 11:40:39;;;;;;;5.32;1.00;;;24.00;99.90;;;;;;6270682;22;20350;-68
2023/09/24 11:43:13;;;;;;;6.53;1.20;;;23.90;99.90;;;;;;6270035;22;20364;-68
2023/09/24 11:45:48;;;;;;;5.32;1.00;;;24.00;99.90;;;;;;6271059;22;20364;-68
2023/09/24 11:48:18;;;;;;;5.47;1.20;;;24.30;99.90;;;;;;6271244;22;20364;-68
2023/09/24 11:50:47;;;;;;;6.03;1.38;;;24.30;99.90;;;;;;6270229;22;20438;-67
2023/09/24 11:53:14;;;;;;;5.82;1.00;;;24.10;99.90;;;;;;6270665;22;20372;-68
2023/09/24 11:55:41;;;;;;;5.78;1.33;;;24.00;99.90;;;;;;6268160;22;20820;-68
2023/09/24 11:58:07;;;;;;;4.70;0.80;;;23.90;99.90;;;;;;6268209;22;20701;-67
2023/09/24 12:00:35;;;;;;;5.40;0.85;;;24.00;99.90;;;;;;6268512;22;20435;-68
2023/09/24 12:03:01;;;;;;;5.45;1.05;;;24.10;99.90;;;;;;6267718;22;20360;-68
2023/09/24 12:05:28;;;;;;;5.38;1.20;;;24.20;99.90;;;;;;6268988;22;20642;-68
2023/09/24 12:07:54;;;;;;;6.55;0.80;;;24.20;99.90;;;;;;6267714;22;20429;-68
2023/09/24 12:10:21;;;;;;;5.60;0.80;;;24.00;99.90;;;;;;6267493;22;20451;-68
2023/09/24 12:12:48;;;;;;;5.80;1.30;;;23.90;99.90;;;;;;6268123;22;20352;-68
2023/09/24 12:15:15;;;;;;;5.80;1.20;;;24.10;99.90;;;;;;6267965;22;20355;-68
2023/09/24 12:17:42;;;;;;;6.40;1.23;;;24.10;99.90;;;;;;6268171;22;20409;-68
2023/09/24 12:20:09;;;;;;;5.53;1.25;;;24.00;99.90;;;;;;6268052;22;20384;-68
2023/09/24 12:22:34;;;;;;;6.63;1.58;;;24.00;99.90;;;;;;6267856;22;20348;-73
2023/09/24 12:25:00;;;;;;;5.50;1.00;;;24.10;99.90;;;;;;6267762;22;20765;-69
2023/09/24 12:27:29;;;;;;;5.43;1.05;;;24.10;99.90;;;;;;6267428;22;20513;-69
2023/09/24 12:29:54;;;;;;;6.88;0.90;;;23.90;99.90;;;;;;6268354;22;20410;-68
2023/09/24 12:32:20;;;;;;;4.93;0.98;;;23.90;99.90;;;;;;6268329;22;20353;-68
2023/09/24 12:34:46;;;;;;;5.70;1.10;;;24.00;99.90;;;;;;6268645;22;20364;-68
2023/09/24 12:37:11;;;;;;;5.53;1.00;;;23.90;99.90;;;;;;6268748;22;20811;-68
2023/09/24 12:39:37;;;;;;;5.10;1.03;;;23.70;99.90;;;;;;6267431;22;20965;-68
2023/09/24 12:42:02;;;;;;;5.07;0.90;;;23.40;99.90;;;;;;6268223;22;20363;-68
2023/09/24 12:44:28;;;;;;;5.60;1.10;;;23.50;99.90;;;;;;6267854;22;20352;-68
2023/09/24 12:46:55;;;;;;;5.30;1.00;;;23.80;99.90;;;;;;6269127;22;20364;-68
2023/09/24 12:49:21;;;;;;;6.53;1.20;;;24.00;99.90;;;;;;6272295;22;20415;-68
2023/09/24 12:51:46;;;;;;;7.23;1.00;;;23.70;99.90;;;;;;6248186;22;20368;-68
2023/09/24 12:54:12;;;;;;;6.00;1.20;;;23.40;99.90;;;;;;6274693;22;20359;-67